sensor_id;sensor_type;location;lat;lon;timestamp;pressure;altitude;pressure_sealevel;temperature;humidity
62420;BME280;48460;51.616;5.426;2023-05-02T00:26:34;101881.63;;;11.14;100.00
62420;BME280;48460;51.616;5.426;2023-05-02T04:01:25;102024.38;;;10.16;100.00
62420;BME280;48460;51.616;5.426;2023-05-02T05:06:00;102125.81;;;9.62;100.00
62420;BME280;48460;51.616;5.426;2023-05-02T05:08:27;102126.81;;;9.56;100.00
62420;BME280;48460;51.616;5.426;2023-05-02T05:10:56;102122.50;;;9.55;100.00
62420;BME280;48460;51.616;5.426;2023-05-02T05:17:25;102139.63;;;9.69;99.33
62420;BME280;48460;51.616;5.426;2023-05-02T05:33:44;102157.16;;;9.68;95.45
62420;BME280;48460;51.616;5.426;2023-05-02T05:40:05;102169.28;;;9.72;96.77
62420;BME280;48460;51.616;5.426;2023-05-02T05:49:51;102178.88;;;10.06;94.35
62420;BME280;48460;51.616;5.426;2023-05-02T05:55:44;102179.72;;;10.38;92.11
62420;BME280;48460;51.616;5.426;2023-05-02T05:58:19;102193.25;;;10.55;96.03
62420;BME280;48460;51.616;5.426;2023-05-02T06:00:45;102189.47;;;10.64;90.99
62420;BME280;48460;51.616;5.426;2023-05-02T06:03:19;102193.59;;;10.72;90.58
62420;BME280;48460;51.616;5.426;2023-05-02T06:05:52;102199.34;;;10.85;91.25
62420;BME280;48460;51.616;5.426;2023-05-02T06:08:18;102193.94;;;10.90;88.77
62420;BME280;48460;51.616;5.426;2023-05-02T06:10:45;102202.47;;;10.98;89.69
62420;BME280;48460;51.616;5.426;2023-05-02T06:24:11;102227.88;;;10.99;89.19
62420;BME280;48460;51.616;5.426;2023-05-02T06:26:39;102238.34;;;11.01;88.66
62420;BME280;48460;51.616;5.426;2023-05-02T06:29:07;102236.03;;;10.90;89.69
62420;BME280;48460;51.616;5.426;2023-05-02T06:31:40;102238.50;;;10.96;89.79
62420;BME280;48460;51.616;5.426;2023-05-02T06:34:06;102248.25;;;10.92;89.45
62420;BME280;48460;51.616;5.426;2023-05-02T06:36:32;102255.09;;;10.98;89.79
62420;BME280;48460;51.616;5.426;2023-05-02T06:39:00;102253.44;;;10.95;89.48
62420;BME280;48460;51.616;5.426;2023-05-02T06:41:31;102259.56;;;10.94;89.65
62420;BME280;48460;51.616;5.426;2023-05-02T06:44:04;102263.03;;;10.97;89.91
62420;BME280;48460;51.616;5.426;2023-05-02T06:46:36;102266.97;;;11.11;89.11
62420;BME280;48460;51.616;5.426;2023-05-02T06:49:26;102284.22;;;11.22;88.55
62420;BME280;48460;51.616;5.426;2023-05-02T06:52:07;102282.97;;;11.33;89.71
62420;BME280;48460;51.616;5.426;2023-05-02T06:54:58;102282.69;;;11.41;87.04
62420;BME280;48460;51.616;5.426;2023-05-02T06:57:37;102280.13;;;11.39;86.94
62420;BME280;48460;51.616;5.426;2023-05-02T07:00:18;102279.22;;;11.40;86.57
62420;BME280;48460;51.616;5.426;2023-05-02T07:02:50;102285.34;;;11.41;86.34
62420;BME280;48460;51.616;5.426;2023-05-02T07:05:17;102288.78;;;11.43;87.63
62420;BME280;48460;51.616;5.426;2023-05-02T07:07:45;102295.47;;;11.53;87.02
62420;BME280;48460;51.616;5.426;2023-05-02T07:10:11;102291.25;;;11.48;87.06
62420;BME280;48460;51.616;5.426;2023-05-02T07:12:38;102302.81;;;11.44;87.34
62420;BME280;48460;51.616;5.426;2023-05-02T07:15:04;102293.03;;;11.47;87.46
62420;BME280;48460;51.616;5.426;2023-05-02T07:17:34;102303.25;;;11.58;87.45
62420;BME280;48460;51.616;5.426;2023-05-02T07:19:59;102298.28;;;11.75;87.75
62420;BME280;48460;51.616;5.426;2023-05-02T07:22:25;102309.41;;;12.10;85.53
62420;BME280;48460;51.616;5.426;2023-05-02T07:24:58;102312.47;;;12.48;81.68
62420;BME280;48460;51.616;5.426;2023-05-02T07:27:23;102315.69;;;12.56;78.58
62420;BME280;48460;51.616;5.426;2023-05-02T07:29:49;102317.50;;;12.54;77.66
62420;BME280;48460;51.616;5.426;2023-05-02T07:32:15;102319.91;;;12.37;77.33
62420;BME280;48460;51.616;5.426;2023-05-02T07:34:41;102316.22;;;12.17;78.55
62420;BME280;48460;51.616;5.426;2023-05-02T07:37:11;102333.44;;;12.01;79.83
62420;BME280;48460;51.616;5.426;2023-05-02T07:39:39;102337.84;;;11.74;81.26
62420;BME280;48460;51.616;5.426;2023-05-02T07:42:07;102347.19;;;11.57;78.40
62420;BME280;48460;51.616;5.426;2023-05-02T07:44:39;102344.88;;;11.47;79.73
62420;BME280;48460;51.616;5.426;2023-05-02T07:47:55;102343.63;;;11.30;78.91
62420;BME280;48460;51.616;5.426;2023-05-02T07:50:23;102348.94;;;11.29;80.69
62420;BME280;48460;51.616;5.426;2023-05-02T07:52:49;102350.63;;;11.31;81.09
62420;BME280;48460;51.616;5.426;2023-05-02T07:55:15;102357.28;;;11.43;80.88
62420;BME280;48460;51.616;5.426;2023-05-02T07:57:42;102353.88;;;11.39;77.34
62420;BME280;48460;51.616;5.426;2023-05-02T08:00:09;102352.97;;;11.40;77.87
62420;BME280;48460;51.616;5.426;2023-05-02T08:02:40;102352.97;;;11.40;76.51
62420;BME280;48460;51.616;5.426;2023-05-02T08:05:06;102361.91;;;11.35;77.52
62420;BME280;48460;51.616;5.426;2023-05-02T08:07:33;102360.81;;;11.42;76.66
62420;BME280;48460;51.616;5.426;2023-05-02T08:10:00;102364.78;;;11.55;77.06
62420;BME280;48460;51.616;5.426;2023-05-02T08:12:25;102363.69;;;11.62;75.25
62420;BME280;48460;51.616;5.426;2023-05-02T08:14:53;102361.66;;;11.71;74.13
62420;BME280;48460;51.616;5.426;2023-05-02T08:17:24;102359.66;;;11.79;74.69
62420;BME280;48460;51.616;5.426;2023-05-02T08:19:50;102366.22;;;11.94;73.96
62420;BME280;48460;51.616;5.426;2023-05-02T08:22:15;102375.63;;;12.27;72.08
62420;BME280;48460;51.616;5.426;2023-05-02T08:24:41;102367.28;;;12.40;69.92
62420;BME280;48460;51.616;5.426;2023-05-02T08:27:07;102369.22;;;12.60;69.53
62420;BME280;48460;51.616;5.426;2023-05-02T08:29:32;102377.53;;;12.72;68.15
62420;BME280;48460;51.616;5.426;2023-05-02T08:32:02;102386.63;;;12.89;67.35
62420;BME280;48460;51.616;5.426;2023-05-02T08:34:28;102382.59;;;13.02;68.06
62420;BME280;48460;51.616;5.426;2023-05-02T08:36:54;102394.50;;;13.14;65.70
62420;BME280;48460;51.616;5.426;2023-05-02T08:39:22;102397.75;;;13.20;65.63
62420;BME280;48460;51.616;5.426;2023-05-02T08:41:47;102392.19;;;13.30;63.56
62420;BME280;48460;51.616;5.426;2023-05-02T08:44:14;102392.44;;;13.45;63.53
62420;BME280;48460;51.616;5.426;2023-05-02T08:46:43;102396.75;;;13.70;63.28
62420;BME280;48460;51.616;5.426;2023-05-02T08:49:14;102396.06;;;13.87;61.48
62420;BME280;48460;51.616;5.426;2023-05-02T08:51:42;102387.66;;;13.77;60.14
62420;BME280;48460;51.616;5.426;2023-05-02T08:54:09;102394.97;;;13.93;61.69
62420;BME280;48460;51.616;5.426;2023-05-02T08:56:38;102396.00;;;14.51;59.82
62420;BME280;48460;51.616;5.426;2023-05-02T08:59:05;102393.03;;;14.79;57.53
62420;BME280;48460;51.616;5.426;2023-05-02T09:01:32;102411.13;;;14.70;56.69
62420;BME280;48460;51.616;5.426;2023-05-02T09:04:00;102413.06;;;14.44;58.05
62420;BME280;48460;51.616;5.426;2023-05-02T09:06:26;102415.44;;;14.30;58.67
62420;BME280;48460;51.616;5.426;2023-05-02T09:08:53;102426.50;;;14.19;58.57
62420;BME280;48460;51.616;5.426;2023-05-02T09:11:40;102432.69;;;14.18;60.70
62420;BME280;48460;51.616;5.426;2023-05-02T09:14:17;102439.34;;;14.06;59.99
62420;BME280;48460;51.616;5.426;2023-05-02T09:16:45;102433.88;;;14.11;60.62
62420;BME280;48460;51.616;5.426;2023-05-02T09:19:24;102438.44;;;14.07;59.32
62420;BME280;48460;51.616;5.426;2023-05-02T09:21:58;102440.75;;;14.15;58.71
62420;BME280;48460;51.616;5.426;2023-05-02T09:24:32;102449.97;;;14.27;58.78
62420;BME280;48460;51.616;5.426;2023-05-02T09:27:16;102450.50;;;14.35;58.71
62420;BME280;48460;51.616;5.426;2023-05-02T09:29:42;102454.69;;;14.41;56.27
62420;BME280;48460;51.616;5.426;2023-05-02T09:32:43;102454.25;;;14.51;57.11
62420;BME280;48460;51.616;5.426;2023-05-02T09:35:10;102456.63;;;14.37;57.94
62420;BME280;48460;51.616;5.426;2023-05-02T09:37:36;102456.75;;;14.54;59.51
62420;BME280;48460;51.616;5.426;2023-05-02T09:40:06;102449.16;;;14.88;59.30
62420;BME280;48460;51.616;5.426;2023-05-02T09:42:33;102460.38;;;15.13;58.11
62420;BME280;48460;51.616;5.426;2023-05-02T09:44:59;102469.50;;;15.26;57.52
62420;BME280;48460;51.616;5.426;2023-05-02T09:47:24;102459.25;;;15.57;57.03
62420;BME280;48460;51.616;5.426;2023-05-02T09:50:10;102465.13;;;15.82;55.20
62420;BME280;48460;51.616;5.426;2023-05-02T09:53:08;102471.28;;;15.64;54.21
62420;BME280;48460;51.616;5.426;2023-05-02T09:55:44;102468.41;;;15.49;53.36
62420;BME280;48460;51.616;5.426;2023-05-02T09:58:47;102468.13;;;15.37;56.83
62420;BME280;48460;51.616;5.426;2023-05-02T10:01:34;102467.03;;;15.03;55.19
62420;BME280;48460;51.616;5.426;2023-05-02T10:04:14;102474.44;;;14.95;55.70
62420;BME280;48460;51.616;5.426;2023-05-02T10:06:53;102481.44;;;14.96;54.96
62420;BME280;48460;51.616;5.426;2023-05-02T10:09:22;102484.72;;;14.82;54.53
62420;BME280;48460;51.616;5.426;2023-05-02T10:12:01;102483.78;;;14.83;54.69
62420;BME280;48460;51.616;5.426;2023-05-02T10:14:38;102483.50;;;14.89;54.11
62420;BME280;48460;51.616;5.426;2023-05-02T10:17:34;102481.53;;;14.94;54.82
62420;BME280;48460;51.616;5.426;2023-05-02T10:20:24;102480.97;;;15.46;53.32
62420;BME280;48460;51.616;5.426;2023-05-02T10:22:54;102488.03;;;16.21;51.31
62420;BME280;48460;51.616;5.426;2023-05-02T10:25:27;102485.63;;;16.34;49.79
62420;BME280;48460;51.616;5.426;2023-05-02T10:28:04;102480.19;;;16.18;49.02
62420;BME280;48460;51.616;5.426;2023-05-02T10:30:32;102480.56;;;15.74;48.80
62420;BME280;48460;51.616;5.426;2023-05-02T10:33:04;102489.00;;;15.82;50.20
62420;BME280;48460;51.616;5.426;2023-05-02T10:35:37;102487.28;;;15.81;49.78
62420;BME280;48460;51.616;5.426;2023-05-02T10:38:24;102492.00;;;15.93;48.69
62420;BME280;48460;51.616;5.426;2023-05-02T10:41:17;102475.63;;;16.91;48.13
62420;BME280;48460;51.616;5.426;2023-05-02T10:43:48;102487.72;;;17.14;45.07
62420;BME280;48460;51.616;5.426;2023-05-02T10:46:32;102495.53;;;17.33;46.11
62420;BME280;48460;51.616;5.426;2023-05-02T10:51:33;102485.38;;;16.38;44.34
62420;BME280;48460;51.616;5.426;2023-05-02T10:54:35;102484.75;;;16.16;47.99
62420;BME280;48460;51.616;5.426;2023-05-02T11:19:10;102513.13;;;17.02;44.71
62420;BME280;48460;51.616;5.426;2023-05-02T11:25:00;102511.81;;;17.27;42.74
62420;BME280;48460;51.616;5.426;2023-05-02T11:27:51;102511.66;;;17.30;43.96
62420;BME280;48460;51.616;5.426;2023-05-02T11:30:42;102509.69;;;17.34;44.71
62420;BME280;48460;51.616;5.426;2023-05-02T11:38:50;102503.53;;;19.89;38.90
62420;BME280;48460;51.616;5.426;2023-05-02T11:41:42;102508.13;;;20.41;38.02
62420;BME280;48460;51.616;5.426;2023-05-02T11:44:23;102509.91;;;20.00;36.71
62420;BME280;48460;51.616;5.426;2023-05-02T11:50:15;102499.84;;;19.77;35.79
62420;BME280;48460;51.616;5.426;2023-05-02T11:52:43;102511.50;;;19.76;36.97
62420;BME280;48460;51.616;5.426;2023-05-02T11:55:13;102512.69;;;19.99;36.69
62420;BME280;48460;51.616;5.426;2023-05-02T11:57:45;102512.34;;;20.58;35.18
62420;BME280;48460;51.616;5.426;2023-05-02T12:00:16;102511.84;;;21.29;34.47
62420;BME280;48460;51.616;5.426;2023-05-02T12:02:46;102512.91;;;21.89;33.18
62420;BME280;48460;51.616;5.426;2023-05-02T12:05:13;102515.44;;;22.03;33.33
62420;BME280;48460;51.616;5.426;2023-05-02T12:07:41;102519.56;;;21.47;33.14
62420;BME280;48460;51.616;5.426;2023-05-02T12:10:11;102525.22;;;21.16;34.12
62420;BME280;48460;51.616;5.426;2023-05-02T12:12:38;102528.34;;;21.49;32.96
62420;BME280;48460;51.616;5.426;2023-05-02T12:15:12;102535.63;;;21.59;33.23
62420;BME280;48460;51.616;5.426;2023-05-02T12:17:42;102523.25;;;22.30;32.03
62420;BME280;48460;51.616;5.426;2023-05-02T12:20:11;102528.06;;;22.38;31.25
62420;BME280;48460;51.616;5.426;2023-05-02T12:22:37;102531.13;;;22.45;31.23
62420;BME280;48460;51.616;5.426;2023-05-02T12:25:10;102525.91;;;22.06;32.43
62420;BME280;48460;51.616;5.426;2023-05-02T12:27:39;102528.88;;;22.15;31.52
62420;BME280;48460;51.616;5.426;2023-05-02T12:30:07;102537.56;;;21.06;31.03
62420;BME280;48460;51.616;5.426;2023-05-02T12:32:34;102538.56;;;21.80;33.70
62420;BME280;48460;51.616;5.426;2023-05-02T12:35:20;102545.94;;;22.14;31.73
62420;BME280;48460;51.616;5.426;2023-05-02T12:37:51;102546.78;;;22.62;30.02
62420;BME280;48460;51.616;5.426;2023-05-02T12:40:17;102545.25;;;23.29;29.60
62420;BME280;48460;51.616;5.426;2023-05-02T12:42:59;102552.94;;;23.33;31.04
62420;BME280;48460;51.616;5.426;2023-05-02T12:45:29;102568.91;;;23.35;30.33
62420;BME280;48460;51.616;5.426;2023-05-02T12:50:45;102563.47;;;24.25;28.90
62420;BME280;48460;51.616;5.426;2023-05-02T12:53:11;102573.06;;;23.28;28.65
62420;BME280;48460;51.616;5.426;2023-05-02T12:55:37;102567.00;;;22.55;29.30
62420;BME280;48460;51.616;5.426;2023-05-02T12:58:07;102575.63;;;21.74;29.16
62420;BME280;48460;51.616;5.426;2023-05-02T13:00:36;102566.84;;;22.08;30.73
62420;BME280;48460;51.616;5.426;2023-05-02T13:03:03;102575.97;;;22.43;30.46
62420;BME280;48460;51.616;5.426;2023-05-02T13:05:28;102574.19;;;22.90;28.64
62420;BME280;48460;51.616;5.426;2023-05-02T13:07:56;102567.84;;;22.91;28.25
62420;BME280;48460;51.616;5.426;2023-05-02T13:10:29;102568.78;;;23.03;28.35
62420;BME280;48460;51.616;5.426;2023-05-02T13:12:55;102565.41;;;23.23;27.91
62420;BME280;48460;51.616;5.426;2023-05-02T13:15:21;102559.00;;;23.02;27.91
62420;BME280;48460;51.616;5.426;2023-05-02T13:17:46;102564.84;;;22.95;30.17
62420;BME280;48460;51.616;5.426;2023-05-02T13:20:14;102562.91;;;22.97;29.74
62420;BME280;48460;51.616;5.426;2023-05-02T13:22:40;102548.06;;;22.81;29.70
62420;BME280;48460;51.616;5.426;2023-05-02T13:25:09;102555.75;;;23.65;29.38
62420;BME280;48460;51.616;5.426;2023-05-02T13:27:41;102561.34;;;23.96;27.32
62420;BME280;48460;51.616;5.426;2023-05-02T13:30:07;102559.16;;;24.01;27.34
62420;BME280;48460;51.616;5.426;2023-05-02T13:32:35;102562.19;;;24.08;27.36
62420;BME280;48460;51.616;5.426;2023-05-02T13:35:01;102555.56;;;24.12;26.03
62420;BME280;48460;51.616;5.426;2023-05-02T13:37:27;102555.94;;;24.07;27.01
62420;BME280;48460;51.616;5.426;2023-05-02T13:39:53;102556.13;;;23.72;26.41
62420;BME280;48460;51.616;5.426;2023-05-02T13:42:18;102560.88;;;23.57;27.95
62420;BME280;48460;51.616;5.426;2023-05-02T13:44:44;102561.22;;;23.53;26.90
62420;BME280;48460;51.616;5.426;2023-05-02T13:47:10;102566.50;;;23.54;27.23
62420;BME280;48460;51.616;5.426;2023-05-02T13:49:35;102567.78;;;23.04;27.01
62420;BME280;48460;51.616;5.426;2023-05-02T13:52:03;102556.22;;;23.26;28.68
62420;BME280;48460;51.616;5.426;2023-05-02T13:54:28;102561.38;;;23.51;26.83
62420;BME280;48460;51.616;5.426;2023-05-02T13:56:54;102571.97;;;23.19;27.73
62420;BME280;48460;51.616;5.426;2023-05-02T13:59:23;102569.16;;;22.74;28.63
62420;BME280;48460;51.616;5.426;2023-05-02T14:01:48;102561.72;;;22.05;28.72
62420;BME280;48460;51.616;5.426;2023-05-02T14:04:14;102575.28;;;21.91;28.98
62420;BME280;48460;51.616;5.426;2023-05-02T14:06:41;102562.22;;;22.47;29.16
62420;BME280;48460;51.616;5.426;2023-05-02T14:09:11;102562.31;;;21.85;30.35
62420;BME280;48460;51.616;5.426;2023-05-02T14:11:41;102561.75;;;21.43;30.39
62420;BME280;48460;51.616;5.426;2023-05-02T14:14:20;102561.88;;;20.76;31.80
62420;BME280;48460;51.616;5.426;2023-05-02T14:16:51;102556.03;;;20.44;31.04
62420;BME280;48460;51.616;5.426;2023-05-02T14:19:21;102559.34;;;20.87;31.68
62420;BME280;48460;51.616;5.426;2023-05-02T14:21:56;102561.06;;;21.65;30.59
62420;BME280;48460;51.616;5.426;2023-05-02T14:24:21;102553.44;;;21.84;29.78
62420;BME280;48460;51.616;5.426;2023-05-02T14:26:47;102553.97;;;21.90;28.51
62420;BME280;48460;51.616;5.426;2023-05-02T14:29:13;102552.91;;;22.16;28.30
62420;BME280;48460;51.616;5.426;2023-05-02T14:31:39;102562.44;;;22.20;28.77
62420;BME280;48460;51.616;5.426;2023-05-02T14:34:06;102555.38;;;21.82;28.66
62420;BME280;48460;51.616;5.426;2023-05-02T14:36:32;102557.72;;;21.74;30.46
62420;BME280;48460;51.616;5.426;2023-05-02T14:38:58;102558.72;;;21.22;30.19
62420;BME280;48460;51.616;5.426;2023-05-02T14:41:26;102556.72;;;20.60;30.88
62420;BME280;48460;51.616;5.426;2023-05-02T14:43:55;102558.78;;;20.15;31.26
62420;BME280;48460;51.616;5.426;2023-05-02T14:46:23;102552.06;;;19.95;32.45
62420;BME280;48460;51.616;5.426;2023-05-02T14:48:51;102553.34;;;19.75;33.08
62420;BME280;48460;51.616;5.426;2023-05-02T14:51:21;102553.53;;;19.72;32.32
62420;BME280;48460;51.616;5.426;2023-05-02T14:53:47;102558.09;;;19.56;32.22
62420;BME280;48460;51.616;5.426;2023-05-02T14:56:13;102557.53;;;19.22;32.14
62420;BME280;48460;51.616;5.426;2023-05-02T14:58:44;102561.84;;;18.95;32.80
62420;BME280;48460;51.616;5.426;2023-05-02T15:01:20;102548.50;;;18.64;34.63
62420;BME280;48460;51.616;5.426;2023-05-02T15:03:46;102557.94;;;18.86;34.70
62420;BME280;48460;51.616;5.426;2023-05-02T15:06:13;102552.53;;;18.72;34.97
62420;BME280;48460;51.616;5.426;2023-05-02T15:08:42;102551.66;;;18.87;35.94
62420;BME280;48460;51.616;5.426;2023-05-02T15:11:11;102561.34;;;18.88;34.41
62420;BME280;48460;51.616;5.426;2023-05-02T15:13:36;102561.47;;;18.86;34.54
62420;BME280;48460;51.616;5.426;2023-05-02T15:16:03;102538.34;;;18.71;35.11
62420;BME280;48460;51.616;5.426;2023-05-02T15:18:31;102561.56;;;18.69;34.99
62420;BME280;48460;51.616;5.426;2023-05-02T15:20:57;102556.47;;;18.50;35.81
62420;BME280;48460;51.616;5.426;2023-05-02T15:23:30;102558.78;;;18.56;35.45
62420;BME280;48460;51.616;5.426;2023-05-02T15:26:08;102550.91;;;18.39;35.27
62420;BME280;48460;51.616;5.426;2023-05-02T15:28:38;102565.34;;;18.19;35.50
62420;BME280;48460;51.616;5.426;2023-05-02T15:31:05;102550.47;;;17.99;36.62
62420;BME280;48460;51.616;5.426;2023-05-02T15:33:31;102553.81;;;17.87;35.95
62420;BME280;48460;51.616;5.426;2023-05-02T15:35:57;102560.06;;;17.70;37.19
62420;BME280;48460;51.616;5.426;2023-05-02T15:38:23;102568.28;;;17.65;37.31
62420;BME280;48460;51.616;5.426;2023-05-02T15:40:55;102570.75;;;17.52;37.74
62420;BME280;48460;51.616;5.426;2023-05-02T15:43:22;102567.00;;;17.39;37.11
62420;BME280;48460;51.616;5.426;2023-05-02T15:45:58;102561.72;;;17.22;37.46
62420;BME280;48460;51.616;5.426;2023-05-02T15:48:28;102565.19;;;17.06;38.54
62420;BME280;48460;51.616;5.426;2023-05-02T15:50:56;102566.03;;;17.07;38.42
62420;BME280;48460;51.616;5.426;2023-05-02T15:53:22;102563.94;;;17.14;38.75
62420;BME280;48460;51.616;5.426;2023-05-02T15:55:51;102565.28;;;17.22;38.28
62420;BME280;48460;51.616;5.426;2023-05-02T15:58:18;102564.66;;;17.00;38.10
62420;BME280;48460;51.616;5.426;2023-05-02T16:00:44;102570.06;;;16.81;37.62
62420;BME280;48460;51.616;5.426;2023-05-02T16:03:10;102565.63;;;16.62;37.98
62420;BME280;48460;51.616;5.426;2023-05-02T16:05:37;102559.97;;;16.34;38.53
62420;BME280;48460;51.616;5.426;2023-05-02T16:08:04;102566.47;;;16.09;38.36
62420;BME280;48460;51.616;5.426;2023-05-02T16:10:32;102580.22;;;15.99;40.11
62420;BME280;48460;51.616;5.426;2023-05-02T16:13:00;102571.75;;;15.90;39.94
62420;BME280;48460;51.616;5.426;2023-05-02T16:15:28;102579.38;;;15.98;39.71
62420;BME280;48460;51.616;5.426;2023-05-02T16:17:57;102578.38;;;16.01;40.06
62420;BME280;48460;51.616;5.426;2023-05-02T16:20:28;102577.72;;;15.95;39.81
62420;BME280;48460;51.616;5.426;2023-05-02T16:22:56;102571.31;;;16.00;41.12
62420;BME280;48460;51.616;5.426;2023-05-02T16:25:24;102576.28;;;15.88;39.85
62420;BME280;48460;51.616;5.426;2023-05-02T16:27:52;102570.34;;;15.83;40.29
62420;BME280;48460;51.616;5.426;2023-05-02T16:30:18;102578.06;;;15.69;39.99
62420;BME280;48460;51.616;5.426;2023-05-02T16:32:43;102564.34;;;15.59;40.75
62420;BME280;48460;51.616;5.426;2023-05-02T16:35:09;102574.63;;;15.46;40.63
62420;BME280;48460;51.616;5.426;2023-05-02T16:37:37;102573.03;;;15.42;41.06
62420;BME280;48460;51.616;5.426;2023-05-02T16:40:07;102585.78;;;15.34;41.56
62420;BME280;48460;51.616;5.426;2023-05-02T16:42:33;102575.38;;;15.30;40.79
62420;BME280;48460;51.616;5.426;2023-05-02T16:44:59;102580.28;;;15.18;41.98
62420;BME280;48460;51.616;5.426;2023-05-02T16:47:25;102578.34;;;15.22;41.34
62420;BME280;48460;51.616;5.426;2023-05-02T16:49:57;102587.28;;;14.99;41.03
62420;BME280;48460;51.616;5.426;2023-05-02T16:52:33;102582.47;;;14.88;42.17
62420;BME280;48460;51.616;5.426;2023-05-02T16:55:01;102585.84;;;14.92;42.20
62420;BME280;48460;51.616;5.426;2023-05-02T17:04:12;102590.06;;;14.75;42.37
62420;BME280;48460;51.616;5.426;2023-05-02T17:06:40;102582.91;;;14.77;43.61
62420;BME280;48460;51.616;5.426;2023-05-02T17:09:07;102589.56;;;14.66;42.80
62420;BME280;48460;51.616;5.426;2023-05-02T17:11:33;102595.13;;;14.59;42.61
62420;BME280;48460;51.616;5.426;2023-05-02T17:13:59;102602.72;;;14.45;43.36
62420;BME280;48460;51.616;5.426;2023-05-02T17:16:24;102598.56;;;14.40;42.29
62420;BME280;48460;51.616;5.426;2023-05-02T17:18:50;102591.03;;;14.29;44.24
62420;BME280;48460;51.616;5.426;2023-05-02T17:21:17;102606.97;;;14.27;43.58
62420;BME280;48460;51.616;5.426;2023-05-02T17:23:43;102600.34;;;14.16;43.56
62420;BME280;48460;51.616;5.426;2023-05-02T17:26:09;102598.97;;;14.07;43.24
62420;BME280;48460;51.616;5.426;2023-05-02T17:28:41;102589.84;;;13.92;44.90
62420;BME280;48460;51.616;5.426;2023-05-02T17:31:12;102590.81;;;13.89;44.77
62420;BME280;48460;51.616;5.426;2023-05-02T17:33:38;102589.91;;;13.89;45.27
62420;BME280;48460;51.616;5.426;2023-05-02T17:36:04;102587.72;;;13.77;44.78
62420;BME280;48460;51.616;5.426;2023-05-02T17:38:30;102592.47;;;13.68;45.51
62420;BME280;48460;51.616;5.426;2023-05-02T17:40:56;102589.13;;;13.63;45.88
62420;BME280;48460;51.616;5.426;2023-05-02T17:43:21;102591.88;;;13.60;45.86
62420;BME280;48460;51.616;5.426;2023-05-02T17:45:47;102586.13;;;13.49;46.16
62420;BME280;48460;51.616;5.426;2023-05-02T17:48:12;102582.75;;;13.44;46.42
62420;BME280;48460;51.616;5.426;2023-05-02T17:50:38;102585.53;;;13.41;46.08
62420;BME280;48460;51.616;5.426;2023-05-02T17:53:05;102597.13;;;13.37;46.77
62420;BME280;48460;51.616;5.426;2023-05-02T17:55:40;102599.78;;;13.37;46.61
62420;BME280;48460;51.616;5.426;2023-05-02T17:58:05;102604.31;;;13.33;46.00
62420;BME280;48460;51.616;5.426;2023-05-02T18:00:31;102607.69;;;13.12;46.44
62420;BME280;48460;51.616;5.426;2023-05-02T18:02:56;102607.06;;;13.04;46.93
62420;BME280;48460;51.616;5.426;2023-05-02T18:05:22;102604.88;;;12.90;47.52
62420;BME280;48460;51.616;5.426;2023-05-02T18:07:50;102618.84;;;12.93;48.26
62420;BME280;48460;51.616;5.426;2023-05-02T18:10:17;102628.84;;;12.84;48.27
62420;BME280;48460;51.616;5.426;2023-05-02T18:12:43;102626.41;;;12.77;48.10
62420;BME280;48460;51.616;5.426;2023-05-02T18:15:08;102617.78;;;12.72;48.97
62420;BME280;48460;51.616;5.426;2023-05-02T18:17:34;102615.28;;;12.68;50.28
62420;BME280;48460;51.616;5.426;2023-05-02T18:20:02;102621.53;;;12.65;49.01
62420;BME280;48460;51.616;5.426;2023-05-02T18:22:31;102620.88;;;12.59;50.07
62420;BME280;48460;51.616;5.426;2023-05-02T18:24:56;102621.94;;;12.53;49.59
62420;BME280;48460;51.616;5.426;2023-05-02T18:27:24;102622.13;;;12.47;49.29
62420;BME280;48460;51.616;5.426;2023-05-02T18:29:50;102622.22;;;12.44;50.03
62420;BME280;48460;51.616;5.426;2023-05-02T18:32:18;102617.03;;;12.41;50.45
62420;BME280;48460;51.616;5.426;2023-05-02T18:34:44;102615.38;;;12.37;50.33
62420;BME280;48460;51.616;5.426;2023-05-02T18:37:09;102623.41;;;12.34;50.26
62420;BME280;48460;51.616;5.426;2023-05-02T18:39:35;102613.88;;;12.28;50.86
62420;BME280;48460;51.616;5.426;2023-05-02T18:42:01;102619.06;;;12.31;51.47
62420;BME280;48460;51.616;5.426;2023-05-02T18:44:28;102628.03;;;12.25;51.35
62420;BME280;48460;51.616;5.426;2023-05-02T18:46:54;102625.66;;;12.18;52.08
62420;BME280;48460;51.616;5.426;2023-05-02T18:49:20;102621.53;;;12.07;51.75
62420;BME280;48460;51.616;5.426;2023-05-02T18:51:46;102625.09;;;12.06;52.20
62420;BME280;48460;51.616;5.426;2023-05-02T18:54:12;102629.78;;;11.97;52.45
62420;BME280;48460;51.616;5.426;2023-05-02T18:56:41;102641.31;;;11.93;52.67
62420;BME280;48460;51.616;5.426;2023-05-02T18:59:07;102644.19;;;11.85;52.57
62420;BME280;48460;51.616;5.426;2023-05-02T19:01:35;102646.31;;;11.71;53.91
62420;BME280;48460;51.616;5.426;2023-05-02T19:04:01;102649.16;;;11.63;54.16
62420;BME280;48460;51.616;5.426;2023-05-02T19:06:28;102640.72;;;11.50;54.99
62420;BME280;48460;51.616;5.426;2023-05-02T19:08:54;102649.63;;;11.45;56.13
62420;BME280;48460;51.616;5.426;2023-05-02T19:11:19;102655.06;;;11.38;56.47
62420;BME280;48460;51.616;5.426;2023-05-02T19:13:45;102653.66;;;11.25;56.28
62420;BME280;48460;51.616;5.426;2023-05-02T19:16:12;102656.25;;;11.27;58.22
62420;BME280;48460;51.616;5.426;2023-05-02T19:18:39;102654.78;;;11.16;57.87
62420;BME280;48460;51.616;5.426;2023-05-02T19:21:13;102659.13;;;11.17;58.12
62420;BME280;48460;51.616;5.426;2023-05-02T19:23:42;102661.13;;;11.08;57.96
62420;BME280;48460;51.616;5.426;2023-05-02T19:26:16;102662.13;;;11.04;58.49
62420;BME280;48460;51.616;5.426;2023-05-02T19:28:44;102658.72;;;10.99;59.92
62420;BME280;48460;51.616;5.426;2023-05-02T19:31:14;102664.16;;;10.91;59.79
62420;BME280;48460;51.616;5.426;2023-05-02T19:33:41;102666.88;;;10.88;60.49